Time;durP1;ratioP1;P1;durP2;ratioP2;P2;SDS_P1;SDS_P2;PMS_P1;PMS_P2;Temp;Humidity;BMP_temperature;BMP_pressure;BME280_temperature;BME280_humidity;BME280_pressure;Samples;Min_cycle;Max_cycle;Signal;HPM_P1;HPM_P2
2021/12/23 00:00:13;;;;;;;0.30;0.30;;;;;;;-0.96;61.47;99946.22;5092475;28;20149;-81
2021/12/23 00:02:39;;;;;;;0.40;0.40;;;;;;;-1.05;61.48;99931.13;5087068;28;20027;-78
2021/12/23 00:05:10;;;;;;;0.60;0.60;;;;;;;-0.92;61.40;99933.59;5093991;28;20093;-80
2021/12/23 00:07:36;;;;;;;0.98;0.98;;;;;;;-0.82;60.42;99946.75;5095573;28;20019;-80
2021/12/23 00:10:10;;;;;;;0.30;0.30;;;;;;;-0.87;60.23;99927.19;5098318;28;20034;-78
2021/12/23 00:12:39;;;;;;;0.60;0.60;;;;;;;-1.00;59.96;99930.94;5095858;28;20027;-81
2021/12/23 00:15:15;;;;;;;0.30;0.30;;;;;;;-1.11;60.54;99924.31;5075555;28;20028;-78
2021/12/23 00:18:06;;;;;;;0.30;0.30;;;;;;;-1.23;61.63;99946.72;5108776;28;20047;-79
2021/12/23 00:25:51;;;;;;;0.30;0.30;;;;;;;-1.27;59.66;99918.69;5115000;28;20082;-80
2021/12/23 00:28:16;;;;;;;0.32;0.32;;;;;;;-1.09;59.07;99930.22;5082076;28;20403;-79
2021/12/23 00:30:42;;;;;;;0.40;0.40;;;;;;;-1.08;59.68;99923.63;5085825;28;20061;-79
2021/12/23 00:33:08;;;;;;;0.30;0.30;;;;;;;-1.17;59.97;99923.72;5091636;28;20440;-79
2021/12/23 00:35:34;;;;;;;1.05;1.05;;;;;;;-1.15;60.17;99931.53;5077114;28;20034;-80
2021/12/23 00:38:04;;;;;;;1.60;1.60;;;;;;;-1.20;60.94;99943.34;5077642;28;20036;-80
2021/12/23 00:40:30;;;;;;;0.77;0.77;;;;;;;-1.42;61.27;99920.03;5077313;28;20024;-79
2021/12/23 00:42:55;;;;;;;0.40;0.40;;;;;;;-1.67;61.81;99923.63;5094653;28;20031;-78
2021/12/23 00:45:21;;;;;;;0.40;0.40;;;;;;;-1.56;62.93;99951.16;5086896;28;20081;-81
2021/12/23 00:47:47;;;;;;;0.43;0.43;;;;;;;-2.22;63.01;99869.50;5097533;28;20028;-80
2021/12/23 00:50:12;;;;;;;2.45;2.35;;;;;;;-1.69;63.90;99948.34;5097381;28;20027;-81
2021/12/23 00:52:40;;;;;;;0.47;0.47;;;;;;;-1.97;64.09;99898.41;5097535;28;20077;-80
2021/12/23 00:55:08;;;;;;;0.30;0.30;;;;;;;-1.78;62.98;99896.13;5083556;28;20052;-81
2021/12/23 00:57:38;;;;;;;0.82;0.82;;;;;;;-1.51;62.69;99935.53;5076966;28;20036;-81
2021/12/23 01:00:09;;;;;;;0.40;0.40;;;;;;;-1.36;62.01;99934.97;5076905;28;20109;-81
2021/12/23 01:02:35;;;;;;;1.58;1.48;;;;;;;-1.39;62.07;99934.84;5076716;28;20472;-81
2021/12/23 01:05:02;;;;;;;0.30;0.30;;;;;;;-1.63;62.12;99883.16;5077002;28;20035;-82
2021/12/23 01:07:28;;;;;;;0.93;0.93;;;;;;;-1.32;61.43;99932.41;5076793;28;20036;-79
2021/12/23 01:09:54;;;;;;;0.30;0.30;;;;;;;-1.32;61.38;99945.94;5076738;28;20443;-81
2021/12/23 01:12:25;;;;;;;1.85;1.77;;;;;;;-1.42;61.68;99921.94;5076462;28;20046;-81
2021/12/23 01:14:57;;;;;;;0.35;0.35;;;;;;;-1.43;61.73;99923.06;5075888;28;20036;-81
2021/12/23 01:17:32;;;;;;;0.50;0.50;;;;;;;-1.33;61.09;99909.16;5084863;28;20103;-80
2021/12/23 01:20:01;;;;;;;0.30;0.30;;;;;;;-1.52;61.51;99868.13;5097551;28;20036;-81
2021/12/23 01:22:27;;;;;;;0.57;0.57;;;;;;;-1.28;61.40;99933.34;5086105;28;20487;-79
2021/12/23 01:24:52;;;;;;;0.57;0.57;;;;;;;-1.90;63.35;99841.84;5094191;28;20035;-79
2021/12/23 01:27:18;;;;;;;0.38;0.38;;;;;;;-1.59;62.39;99876.75;5079872;28;20043;-80
2021/12/23 01:29:43;;;;;;;0.68;0.68;;;;;;;-1.18;62.09;99929.47;5086372;28;20056;-79
2021/12/23 01:32:09;;;;;;;0.43;0.43;;;;;;;-1.16;62.09;99925.31;5089568;28;20016;-80
2021/12/23 01:34:36;;;;;;;0.88;0.88;;;;;;;-1.28;60.98;99917.09;5104201;28;20038;-79
2021/12/23 01:37:06;;;;;;;1.27;1.27;;;;;;;-1.28;60.49;99885.34;5091145;28;20089;-78
2021/12/23 01:39:31;;;;;;;0.40;0.40;;;;;;;-1.16;59.89;99909.03;5085240;28;20447;-80
2021/12/23 01:41:58;;;;;;;1.48;1.48;;;;;;;-1.27;59.94;99897.75;5083769;28;20131;-79
2021/12/23 01:44:23;;;;;;;0.38;0.38;;;;;;;-1.35;60.86;99895.13;5092515;28;20048;-80
2021/12/23 01:46:49;;;;;;;0.30;0.30;;;;;;;-2.13;61.72;99805.31;5075645;28;20059;-77
2021/12/23 01:49:15;;;;;;;0.30;0.30;;;;;;;-1.51;62.17;99913.88;5093761;28;20105;-79
2021/12/23 01:51:40;;;;;;;0.47;0.47;;;;;;;-1.56;62.19;99891.53;5075432;28;20042;-78
2021/12/23 01:54:06;;;;;;;0.40;0.40;;;;;;;-1.49;62.00;99899.97;5075585;28;20028;-79
2021/12/23 01:56:31;;;;;;;0.50;0.50;;;;;;;-1.54;61.70;99881.19;5075434;28;20034;-77
2021/12/23 01:58:57;;;;;;;1.02;1.02;;;;;;;-1.37;61.49;99911.69;5075343;28;20471;-80
2021/12/23 02:01:23;;;;;;;0.32;0.32;;;;;;;-1.35;60.93;99889.69;5091933;28;20137;-80
2021/12/23 02:03:49;;;;;;;0.52;0.52;;;;;;;-1.37;61.02;99886.50;5087243;28;20394;-79
2021/12/23 02:06:15;;;;;;;0.52;0.52;;;;;;;-1.47;61.07;99892.31;5095909;28;20027;-79
2021/12/23 02:08:40;;;;;;;0.43;0.43;;;;;;;-1.82;61.74;99851.84;5095550;28;20028;-80
2021/12/23 02:11:08;;;;;;;0.40;0.40;;;;;;;-1.77;62.17;99837.31;5095550;28;20032;-80
2021/12/23 02:13:34;;;;;;;1.42;1.38;;;;;;;-1.56;62.24;99900.47;5086083;28;20533;-78
2021/12/23 02:16:00;;;;;;;0.65;0.65;;;;;;;-1.65;62.34;99888.91;5075485;28;20050;-81
2021/12/23 02:18:27;;;;;;;0.40;0.40;;;;;;;-1.63;62.48;99876.59;5075135;28;20024;-79
2021/12/23 02:20:53;;;;;;;0.40;0.40;;;;;;;-1.71;62.33;99868.53;5077547;28;20028;-80
2021/12/23 02:23:18;;;;;;;0.40;0.40;;;;;;;-1.63;62.47;99886.66;5095382;28;20027;-80
2021/12/23 02:25:44;;;;;;;0.45;0.45;;;;;;;-1.58;62.82;99872.13;5095336;28;20032;-79
2021/12/23 02:28:14;;;;;;;0.40;0.40;;;;;;;-2.15;61.77;99799.44;5080034;28;20128;-78
2021/12/23 02:30:39;;;;;;;0.30;0.30;;;;;;;-1.57;62.27;99881.84;5074580;28;20047;-77
2021/12/23 02:33:06;;;;;;;0.50;0.50;;;;;;;-1.78;61.86;99833.81;5075119;28;20020;-80
2021/12/23 02:35:32;;;;;;;0.60;0.60;;;;;;;-1.84;62.84;99864.91;5074468;28;20031;-77
2021/12/23 02:37:57;;;;;;;0.40;0.40;;;;;;;-1.62;62.19;99885.53;5074625;28;20102;-78
2021/12/23 02:40:39;;;;;;;0.47;0.47;;;;;;;-1.51;62.82;99892.19;5092427;28;20035;-78
2021/12/23 02:43:07;;;;;;;0.80;0.80;;;;;;;-1.45;62.09;99909.06;5087899;28;20476;-77
2021/12/23 02:45:33;;;;;;;0.40;0.40;;;;;;;-1.57;62.88;99893.50;5074584;28;20031;-77
2021/12/23 02:47:58;;;;;;;0.50;0.50;;;;;;;-1.59;63.02;99887.59;5074506;28;20400;-77
2021/12/23 02:50:24;;;;;;;0.70;0.70;;;;;;;-1.76;63.21;99869.50;5092779;28;20395;-78
2021/12/23 02:52:49;;;;;;;0.40;0.40;;;;;;;-1.76;63.74;99893.91;5086735;28;20111;-77
2021/12/23 02:55:18;;;;;;;0.47;0.47;;;;;;;-1.60;63.21;99874.38;5113586;28;20038;-76
2021/12/23 02:57:44;;;;;;;0.50;0.50;;;;;;;-1.60;62.67;99893.34;5091792;28;20499;-79
2021/12/23 03:00:10;;;;;;;0.50;0.50;;;;;;;-1.88;62.29;99869.41;5076658;28;20055;-80
2021/12/23 03:02:40;;;;;;;0.40;0.40;;;;;;;-2.08;62.67;99837.63;5095978;28;20060;-77
2021/12/23 03:05:10;;;;;;;1.50;1.48;;;;;;;-1.74;62.83;99891.63;5094261;28;20039;-79
2021/12/23 03:07:35;;;;;;;1.67;1.58;;;;;;;-1.75;62.97;99884.63;5110555;28;20050;-78
2021/12/23 03:10:04;;;;;;;0.40;0.40;;;;;;;-1.91;63.31;99864.63;5094601;28;20055;-80
2021/12/23 03:12:29;;;;;;;1.45;1.35;;;;;;;-1.95;63.39;99893.47;5112515;28;20427;-80
2021/12/23 03:14:54;;;;;;;0.40;0.40;;;;;;;-1.91;63.92;99889.00;5094477;28;20073;-79
2021/12/23 03:17:20;;;;;;;0.30;0.30;;;;;;;-1.90;63.93;99893.31;5093778;28;20028;-77
2021/12/23 03:19:45;;;;;;;1.73;1.63;;;;;;;-2.00;64.48;99887.44;5091155;28;20044;-77
2021/12/23 03:22:11;;;;;;;1.05;0.98;;;;;;;-1.96;63.21;99880.25;5074106;28;20028;-76
2021/12/23 03:24:36;;;;;;;0.50;0.50;;;;;;;-2.16;63.53;99858.19;5092610;28;20036;-78
2021/12/23 03:27:02;;;;;;;0.93;0.88;;;;;;;-2.08;63.66;99880.94;5092621;28;20585;-79
2021/12/23 03:29:27;;;;;;;0.85;0.85;;;;;;;-1.97;63.46;99892.22;5074429;28;20032;-80
2021/12/23 03:31:53;;;;;;;0.93;0.93;;;;;;;-1.93;63.40;99902.06;5087725;28;20045;-79
2021/12/23 03:34:18;;;;;;;0.75;0.75;;;;;;;-2.05;63.82;99893.84;5077378;28;20038;-77
2021/12/23 03:36:44;;;;;;;0.65;0.65;;;;;;;-2.26;62.65;99842.31;5090907;28;20024;-77
2021/12/23 03:39:09;;;;;;;0.35;0.35;;;;;;;-1.84;62.72;99905.53;5073996;28;20027;-77
2021/12/23 03:41:35;;;;;;;0.40;0.40;;;;;;;-1.93;63.34;99898.59;5074094;28;20592;-78
2021/12/23 03:44:00;;;;;;;0.47;0.47;;;;;;;-1.89;63.25;99889.47;5077882;28;20085;-77
2021/12/23 03:46:26;;;;;;;0.40;0.40;;;;;;;-2.07;62.72;99869.00;5078148;28;20024;-78
2021/12/23 03:48:51;;;;;;;0.50;0.50;;;;;;;-1.86;63.27;99888.81;5078865;28;20031;-76
2021/12/23 03:51:17;;;;;;;0.60;0.60;;;;;;;-1.71;62.73;99917.28;5078489;28;20491;-77
2021/12/23 03:53:42;;;;;;;0.60;0.60;;;;;;;-1.77;63.03;99897.72;5096635;28;20111;-77
2021/12/23 03:56:08;;;;;;;0.30;0.30;;;;;;;-1.76;62.12;99890.38;5078171;28;20020;-77
2021/12/23 03:58:33;;;;;;;0.60;0.60;;;;;;;-1.70;62.89;99908.03;5077923;28;20041;-77
2021/12/23 04:00:59;;;;;;;0.60;0.60;;;;;;;-1.72;62.29;99896.72;5095433;28;20059;-77
2021/12/23 04:03:25;;;;;;;0.40;0.40;;;;;;;-1.88;63.04;99876.72;5095456;28;20400;-77
2021/12/23 04:05:51;;;;;;;0.47;0.47;;;;;;;-1.70;62.42;99908.84;5094878;28;20036;-78
2021/12/23 04:08:16;;;;;;;0.30;0.30;;;;;;;-1.86;62.32;99894.22;5094614;28;20032;-80
2021/12/23 04:10:42;;;;;;;1.27;1.27;;;;;;;-2.39;61.60;99801.91;5095039;28;20036;-77
2021/12/23 04:13:07;;;;;;;0.47;0.47;;;;;;;-1.83;62.28;99895.50;5094853;28;20368;-78
2021/12/23 04:15:33;;;;;;;0.40;0.40;;;;;;;-1.71;61.35;99907.25;5094607;28;20024;-81
2021/12/23 04:17:59;;;;;;;0.40;0.40;;;;;;;-1.68;60.39;99912.00;5094515;28;20032;-77
2021/12/23 04:20:32;;;;;;;0.35;0.35;;;;;;;-1.65;60.88;99903.25;5094414;28;20020;-79
2021/12/23 04:22:58;;;;;;;0.50;0.50;;;;;;;-1.68;61.62;99906.59;5094739;28;20024;-78
2021/12/23 04:25:26;;;;;;;0.50;0.50;;;;;;;-1.50;60.89;99920.06;5094774;28;20028;-79
2021/12/23 04:27:56;;;;;;;0.40;0.40;;;;;;;-1.67;60.98;99927.16;5095577;28;20388;-77
2021/12/23 04:30:23;;;;;;;0.32;0.32;;;;;;;-1.76;60.54;99910.16;5094886;28;20051;-80
2021/12/23 04:32:49;;;;;;;0.40;0.40;;;;;;;-1.70;60.87;99916.97;5094157;28;20034;-77
2021/12/23 04:35:14;;;;;;;0.50;0.50;;;;;;;-1.69;60.98;99932.09;5093660;28;20028;-78
2021/12/23 04:37:40;;;;;;;0.60;0.60;;;;;;;-1.71;61.81;99909.97;5069868;28;20032;-80
2021/12/23 04:40:08;;;;;;;0.40;0.40;;;;;;;-1.81;62.28;99896.75;5057002;28;20083;-80
2021/12/23 04:42:35;;;;;;;0.30;0.30;;;;;;;-1.82;62.61;99908.75;5070222;28;20496;-81
2021/12/23 04:45:00;;;;;;;0.40;0.40;;;;;;;-2.29;63.25;99928.78;5076955;28;20479;-81
2021/12/23 04:47:26;;;;;;;0.68;0.65;;;;;;;-2.13;63.29;99955.00;5076860;28;20028;-77
2021/12/23 04:49:51;;;;;;;1.05;1.05;;;;;;;-2.54;64.01;99914.16;5094123;28;20032;-80
2021/12/23 04:52:17;;;;;;;0.40;0.40;;;;;;;-2.70;64.57;99921.94;5077038;28;20094;-81
2021/12/23 04:54:42;;;;;;;0.40;0.40;;;;;;;-2.80;64.79;99930.38;5080684;28;20039;-79
2021/12/23 04:57:08;;;;;;;0.40;0.40;;;;;;;-2.97;64.54;99900.63;5107506;28;20508;-79
2021/12/23 04:59:33;;;;;;;0.30;0.30;;;;;;;-2.73;64.48;99933.41;5076414;28;20058;-78
2021/12/23 05:01:59;;;;;;;0.45;0.45;;;;;;;-2.96;64.90;99903.03;5085786;28;20069;-79
2021/12/23 05:04:24;;;;;;;0.30;0.30;;;;;;;-2.95;64.68;99914.59;5076598;28;20060;-79
2021/12/23 05:06:50;;;;;;;1.40;1.30;;;;;;;-2.75;65.29;99943.75;5062995;28;20566;-79
2021/12/23 05:09:15;;;;;;;1.30;1.20;;;;;;;-3.21;65.15;99901.09;5096757;28;20037;-80
2021/12/23 05:11:41;;;;;;;2.53;1.67;;;;;;;-2.55;63.81;99945.03;5086968;28;20111;-77
2021/12/23 05:14:06;;;;;;;0.50;0.50;;;;;;;-2.54;64.12;99935.81;5084304;28;20031;-77
2021/12/23 05:16:32;;;;;;;0.40;0.40;;;;;;;-2.92;64.10;99903.19;5097406;28;20031;-78
2021/12/23 05:18:57;;;;;;;0.50;0.50;;;;;;;-3.24;66.27;99938.72;5093602;28;20547;-80
2021/12/23 05:21:22;;;;;;;0.93;0.93;;;;;;;-3.33;66.92;99917.13;5077113;28;20479;-78
2021/12/23 05:23:48;;;;;;;0.50;0.50;;;;;;;-3.34;67.47;99929.03;5096370;28;20475;-77
2021/12/23 05:26:14;;;;;;;0.40;0.40;;;;;;;-3.48;68.18;99941.84;5095942;28;20024;-79
2021/12/23 05:28:39;;;;;;;0.65;0.65;;;;;;;-3.48;67.59;99928.34;5096818;28;20019;-79
2021/12/23 05:31:06;;;;;;;1.45;1.35;;;;;;;-3.60;68.07;99904.63;5107079;28;20024;-77
2021/12/23 05:33:32;;;;;;;0.40;0.40;;;;;;;-2.98;66.40;99928.78;5075724;28;20055;-79
2021/12/23 05:35:57;;;;;;;0.70;0.70;;;;;;;-3.32;67.31;99918.72;5092677;28;20028;-80
2021/12/23 05:38:24;;;;;;;0.50;0.50;;;;;;;-3.50;67.88;99890.88;5075731;28;20045;-79
2021/12/23 05:40:50;;;;;;;1.77;1.67;;;;;;;-3.52;67.26;99857.16;5093547;28;20027;-78
2021/12/23 05:43:15;;;;;;;0.40;0.40;;;;;;;-3.27;67.39;99918.56;5092621;28;20487;-80
2021/12/23 05:45:41;;;;;;;1.08;1.08;;;;;;;-3.32;67.75;99935.72;5078472;28;20180;-77
2021/12/23 05:48:07;;;;;;;1.20;1.20;;;;;;;-3.91;67.72;99839.09;5092351;28;20032;-77
2021/12/23 05:50:32;;;;;;;0.45;0.45;;;;;;;-2.83;66.58;99927.53;5092466;28;20028;-78
2021/12/23 05:52:58;;;;;;;0.40;0.40;;;;;;;-3.04;66.40;99917.31;5089505;28;20503;-79
2021/12/23 05:55:24;;;;;;;0.32;0.32;;;;;;;-2.85;65.24;99921.63;5092885;28;20038;-79
2021/12/23 05:57:50;;;;;;;1.13;1.13;;;;;;;-2.95;65.24;99925.44;5091507;28;20480;-77
2021/12/23 06:00:23;;;;;;;0.85;0.85;;;;;;;-3.34;66.26;99927.13;5093546;28;20062;-77
2021/12/23 06:02:49;;;;;;;3.38;2.03;;;;;;;-3.15;66.05;99924.16;5087083;28;20089;-78
2021/12/23 06:05:16;;;;;;;0.55;0.55;;;;;;;-2.97;67.02;99938.47;5070880;28;20028;-80
2021/12/23 06:07:42;;;;;;;0.30;0.30;;;;;;;-0.58;61.38;99918.97;5091500;28;20065;-77
2021/12/23 06:10:08;;;;;;;0.60;0.60;;;;;;;-1.63;63.76;99934.63;5074954;28;20028;-79
2021/12/23 06:12:34;;;;;;;0.50;0.50;;;;;;;-3.19;66.43;99931.28;5086951;28;20024;-76
2021/12/23 06:14:59;;;;;;;0.40;0.40;;;;;;;-3.08;66.20;99937.19;5078942;28;20388;-77
2021/12/23 06:17:25;;;;;;;0.60;0.60;;;;;;;-2.87;65.98;99940.88;5091633;28;20480;-77
2021/12/23 06:19:50;;;;;;;0.85;0.85;;;;;;;-2.70;66.09;99932.75;5091860;28;20032;-80
2021/12/23 06:22:18;;;;;;;0.45;0.45;;;;;;;-3.05;66.24;99893.31;5093665;28;20093;-78
2021/12/23 06:24:45;;;;;;;1.35;1.35;;;;;;;-2.93;65.63;99913.19;5095805;28;20396;-78
2021/12/23 06:27:11;;;;;;;5.93;2.05;;;;;;;-2.66;65.74;99939.16;5091314;28;20031;-79
2021/12/23 06:29:37;;;;;;;0.50;0.50;;;;;;;-2.44;65.59;99951.69;5082393;28;20027;-81
2021/12/23 06:32:03;;;;;;;0.40;0.40;;;;;;;-1.97;63.54;99939.03;5083425;28;20536;-81
2021/12/23 06:34:29;;;;;;;0.88;0.88;;;;;;;-2.30;63.49;99936.09;5092924;28;20028;-83
2021/12/23 06:36:54;;;;;;;0.60;0.60;;;;;;;-1.23;62.91;99939.38;5090053;28;20597;-79
2021/12/23 06:39:20;;;;;;;0.52;0.52;;;;;;;-2.22;62.93;99950.72;5075681;28;20032;-80
2021/12/23 06:41:45;;;;;;;1.33;1.33;;;;;;;-0.24;57.92;99926.00;5095518;28;20028;-82
2021/12/23 06:44:11;;;;;;;0.40;0.40;;;;;;;-2.33;63.20;99920.47;5063176;28;20488;-79
2021/12/23 06:46:36;;;;;;;0.30;0.30;;;;;;;-2.12;63.72;99975.56;5076522;28;20027;-78
2021/12/23 06:49:02;;;;;;;1.35;1.35;;;;;;;-2.07;64.33;99969.97;5076134;28;20032;-80
2021/12/23 06:51:29;;;;;;;2.42;2.33;;;;;;;-0.38;61.59;99946.44;5074250;28;20020;-79
2021/12/23 06:53:57;;;;;;;0.80;0.80;;;;;;;-1.76;63.81;99950.78;5074401;28;20498;-80
2021/12/23 06:56:24;;;;;;;0.70;0.70;;;;;;;-1.63;64.41;99938.16;5085917;28;20035;-80
2021/12/23 06:58:50;;;;;;;1.45;1.45;;;;;;;-1.57;63.26;99946.88;5089736;28;20032;-80
2021/12/23 07:01:18;;;;;;;0.65;0.65;;;;;;;-0.71;61.62;99963.44;5073789;28;20112;-78
2021/12/23 07:06:30;;;;;;;1.48;1.48;;;;;;;1.24;56.40;99980.97;5095936;28;20563;-80
2021/12/23 07:08:56;;;;;;;0.75;0.75;;;;;;;-0.46;57.53;99961.66;5094223;28;20027;-80
2021/12/23 07:11:21;;;;;;;0.77;0.50;;;;;;;0.04;56.75;99974.31;5094269;28;20036;-80
2021/12/23 07:13:47;;;;;;;1.42;1.08;;;;;;;-1.01;60.32;99948.31;5094673;28;20057;-79
2021/12/23 07:16:13;;;;;;;0.63;0.63;;;;;;;-1.01;60.50;99951.03;5094974;28;20487;-78
2021/12/23 07:18:38;;;;;;;0.47;0.47;;;;;;;-0.71;59.46;99957.22;5098838;28;20555;-81
2021/12/23 07:21:28;;;;;;;1.00;1.00;;;;;;;1.24;57.75;99975.53;5098870;28;20028;-80
2021/12/23 07:23:53;;;;;;;0.40;0.40;;;;;;;1.48;54.45;99971.94;5049537;28;20027;-79
2021/12/23 07:26:19;;;;;;;0.35;0.35;;;;;;;-0.47;59.59;99968.19;5079236;28;20028;-81
2021/12/23 07:28:44;;;;;;;0.40;0.40;;;;;;;-0.66;60.13;99930.66;5078622;28;20518;-80
2021/12/23 07:31:10;;;;;;;3.65;3.35;;;;;;;-0.58;61.90;99954.25;5077745;28;20101;-82
2021/12/23 07:33:35;;;;;;;0.75;0.75;;;;;;;-0.07;58.98;99955.72;5091814;28;20020;-80
2021/12/23 07:36:04;;;;;;;1.15;1.15;;;;;;;-0.02;58.79;99965.56;5074627;28;20068;-83
2021/12/23 07:38:31;;;;;;;0.30;0.30;;;;;;;-0.17;59.61;99950.69;5090577;28;20402;-81
2021/12/23 07:40:57;;;;;;;1.40;1.33;;;;;;;0.07;58.72;99960.81;5092914;28;20088;-81
2021/12/23 07:44:22;;;;;;;1.63;1.52;;;;;;;0.66;55.39;99950.38;5098412;28;20437;-80
2021/12/23 07:46:17;;;;;;;1.05;0.60;;;;;;;1.12;54.59;99967.38;5102268;28;20568;-80
2021/12/23 07:48:42;;;;;;;2.17;1.90;;;;;;;3.25;49.99;99932.84;5081146;28;20039;-80
2021/12/23 07:51:08;;;;;;;1.02;1.02;;;;;;;3.43;49.47;99955.09;5095808;28;20403;-80
2021/12/23 07:53:34;;;;;;;1.33;1.33;;;;;;;3.73;48.00;99928.00;5077845;28;20484;-79
2021/12/23 07:55:59;;;;;;;0.40;0.40;;;;;;;4.37;46.47;99949.91;5094616;28;20073;-80
2021/12/23 07:58:25;;;;;;;0.30;0.30;;;;;;;4.04;47.10;99938.72;5109785;28;20031;-80
2021/12/23 08:00:50;;;;;;;0.60;0.60;;;;;;;4.00;46.69;99935.94;5082380;28;20059;-80
2021/12/23 08:03:15;;;;;;;0.40;0.40;;;;;;;4.08;46.15;99932.19;5085919;28;20134;-80
2021/12/23 08:05:41;;;;;;;2.03;1.77;;;;;;;4.45;44.39;99913.31;5098035;28;20032;-81
2021/12/23 08:08:07;;;;;;;0.88;0.88;;;;;;;4.46;44.24;99938.72;5097808;28;20024;-82
2021/12/23 08:10:33;;;;;;;0.30;0.30;;;;;;;4.79;44.05;99947.06;5097556;28;20024;-81
2021/12/23 08:12:59;;;;;;;0.40;0.40;;;;;;;4.50;43.87;99923.13;5096642;28;20412;-81
2021/12/23 08:15:25;;;;;;;1.15;1.15;;;;;;;4.79;43.68;99944.34;5111667;28;20039;-79
2021/12/23 08:17:51;;;;;;;1.58;1.50;;;;;;;4.66;42.94;99948.41;5077021;28;20024;-82
2021/12/23 08:20:17;;;;;;;0.28;0.28;;;;;;;4.89;42.29;99940.97;5077250;28;20119;-82
2021/12/23 08:22:43;;;;;;;0.30;0.30;;;;;;;5.18;42.54;99957.84;5078915;28;20052;-81
2021/12/23 08:25:11;;;;;;;0.70;0.70;;;;;;;4.79;44.82;99965.44;5077497;28;20046;-79
2021/12/23 08:27:37;;;;;;;0.80;0.80;;;;;;;4.68;43.70;99948.84;5077230;28;20024;-82
2021/12/23 08:30:06;;;;;;;0.43;0.43;;;;;;;4.77;43.43;99952.13;5076713;28;20401;-80
2021/12/23 08:32:31;;;;;;;0.28;0.28;;;;;;;5.03;42.74;99940.41;5077780;28;20032;-81
2021/12/23 08:34:57;;;;;;;0.75;0.75;;;;;;;4.76;42.39;99923.16;5077832;28;20093;-80
2021/12/23 08:37:23;;;;;;;0.98;0.98;;;;;;;4.95;42.47;99924.22;5077350;28;20023;-82
2021/12/23 08:39:49;;;;;;;0.93;0.93;;;;;;;5.11;41.69;99911.16;5089534;28;20440;-81
2021/12/23 08:42:14;;;;;;;0.55;0.55;;;;;;;5.31;41.29;99935.31;5094805;28;20365;-80
2021/12/23 08:44:40;;;;;;;2.08;1.98;;;;;;;5.11;41.59;99908.44;5093944;28;20035;-81
2021/12/23 08:47:07;;;;;;;1.67;1.45;;;;;;;5.36;41.75;99930.69;5093636;28;20114;-81
2021/12/23 08:49:33;;;;;;;1.25;1.15;;;;;;;5.70;40.96;99933.09;5094647;28;20093;-83
2021/12/23 08:51:58;;;;;;;0.50;0.50;;;;;;;3.90;41.23;99920.13;5077640;28;20450;-83
2021/12/23 08:54:24;;;;;;;0.40;0.40;;;;;;;5.68;40.73;99935.41;5076951;28;20032;-82
2021/12/23 08:56:49;;;;;;;0.70;0.70;;;;;;;4.82;40.84;99868.91;5076517;28;20133;-81
2021/12/23 08:59:17;;;;;;;0.30;0.30;;;;;;;5.84;41.74;99928.94;5076884;28;20040;-81
2021/12/23 09:01:42;;;;;;;0.73;0.73;;;;;;;6.19;40.25;99934.81;5076459;28;20032;-80
2021/12/23 09:04:08;;;;;;;0.35;0.35;;;;;;;6.33;39.97;99913.00;5077278;28;20031;-82
2021/12/23 09:06:34;;;;;;;0.20;0.20;;;;;;;6.71;39.64;99909.00;5080036;28;20123;-80
2021/12/23 09:08:59;;;;;;;0.90;0.90;;;;;;;6.77;39.70;99907.47;5080715;28;20483;-81
2021/12/23 09:11:26;;;;;;;1.08;0.90;;;;;;;6.82;38.97;99911.81;5076340;28;20016;-79
2021/12/23 09:13:52;;;;;;;0.73;0.73;;;;;;;6.70;38.21;99887.41;5094548;28;20496;-80
2021/12/23 09:16:18;;;;;;;0.20;0.20;;;;;;;6.54;37.24;99882.19;5094555;28;20479;-79
2021/12/23 09:18:44;;;;;;;0.75;0.75;;;;;;;6.64;38.04;99880.69;5076325;28;20035;-80
2021/12/23 09:21:12;;;;;;;0.30;0.30;;;;;;;6.86;38.29;99885.97;5094539;28;20020;-79
2021/12/23 09:23:37;;;;;;;;;;;;;;;6.92;37.27;99867.19;5076645;28;20028;-80
2021/12/23 09:26:09;;;;;;;0.35;0.35;;;;;;;6.78;37.98;99869.81;5076616;28;19908;-81
2021/12/23 09:33:56;;;;;;;0.50;0.50;;;;;;;6.80;37.93;99848.25;5094569;28;20461;-81
2021/12/23 09:36:21;;;;;;;2.45;1.55;;;;;;;6.89;37.56;99846.75;5075955;28;20028;-80
2021/12/23 09:38:47;;;;;;;0.90;0.90;;;;;;;7.11;37.85;99852.38;5077744;28;20024;-78
2021/12/23 09:41:16;;;;;;;2.63;2.47;;;;;;;7.20;37.41;99828.06;5094813;28;20407;-80
2021/12/23 09:43:42;;;;;;;1.35;1.35;;;;;;;7.02;37.80;99832.69;5083733;28;20045;-81
2021/12/23 09:46:11;;;;;;;0.52;0.52;;;;;;;7.22;37.57;99836.72;5075407;28;20035;-79
2021/12/23 09:48:42;;;;;;;1.38;1.27;;;;;;;7.17;37.50;99823.34;5074880;28;20032;-79
2021/12/23 09:51:10;;;;;;;0.75;0.75;;;;;;;7.33;37.09;99821.84;5075034;28;20032;-80
2021/12/23 09:53:40;;;;;;;1.00;1.00;;;;;;;7.17;36.69;99812.34;5095328;28;20401;-79
2021/12/23 09:56:06;;;;;;;1.67;1.60;;;;;;;7.25;37.12;99822.19;5095127;28;20063;-77
2021/12/23 09:58:32;;;;;;;0.35;0.35;;;;;;;7.26;38.33;99815.50;5106432;28;20060;-78
2021/12/23 10:00:59;;;;;;;1.10;1.10;;;;;;;6.43;38.31;99805.25;5082381;28;20471;-78
2021/12/23 10:03:25;;;;;;;4.60;1.65;;;;;;;6.82;38.70;99783.50;5093982;28;20498;-77
2021/12/23 10:05:52;;;;;;;0.47;0.45;;;;;;;-143.85;100.00;70650.75;5091365;28;20442;-76
2021/12/23 10:08:18;;;;;;;1.33;1.23;;;;;;;-143.85;100.00;70650.75;5091021;28;20494;-77
2021/12/23 10:11:15;;;;;;;0.52;0.52;;;;;;;-143.85;100.00;70650.75;5095456;28;20088;-78
2021/12/23 10:32:52;;;;;;;2.60;2.40;;;;;;;-143.85;100.00;70650.75;5092775;28;20067;-82
2021/12/23 10:38:13;;;;;;;0.40;0.40;;;;;;;-143.85;100.00;70650.75;5092674;28;20102;-78
2021/12/23 10:40:43;;;;;;;0.85;0.85;;;;;;;-143.85;100.00;70650.75;5091881;28;20028;-79
2021/12/23 10:43:11;;;;;;;0.55;0.55;;;;;;;-143.85;100.00;70650.75;5091307;28;20373;-79
2021/12/23 10:46:16;;;;;;;0.75;0.75;;;;;;;-143.85;100.00;70650.75;5074603;28;20032;-79
2021/12/23 10:48:45;;;;;;;0.93;0.93;;;;;;;-143.85;100.00;70650.75;5088277;28;20034;-78
2021/12/23 10:51:16;;;;;;;2.45;1.55;;;;;;;-143.85;100.00;70650.75;5074543;28;20032;-81
2021/12/23 10:59:27;;;;;;;0.73;0.73;;;;;;;-143.85;100.00;70650.75;5113235;28;20050;-81
2021/12/23 11:02:22;;;;;;;3.83;2.05;;;;;;;-143.85;100.00;70650.75;5078094;28;20067;-80
2021/12/23 11:05:12;;;;;;;1.80;1.60;;;;;;;-143.85;100.00;70650.75;5094696;28;20127;-80
2021/12/23 11:07:52;;;;;;;0.30;0.30;;;;;;;-143.85;100.00;70650.75;5078050;28;20028;-79
2021/12/23 11:11:05;;;;;;;1.10;1.10;;;;;;;-143.85;100.00;70650.75;5074137;28;20502;-80
2021/12/23 11:38:48;;;;;;;6.13;2.30;;;;;;;-143.85;100.00;70650.75;5091948;28;20113;-80
2021/12/23 11:43:51;;;;;;;2.80;1.13;;;;;;;-143.85;100.00;70650.75;5092334;28;20036;-80
2021/12/23 11:46:23;;;;;;;2.50;0.85;;;;;;;-143.85;100.00;70650.75;5074452;28;20115;-78
2021/12/23 11:48:53;;;;;;;0.50;0.50;;;;;;;-143.85;100.00;70650.75;5090951;28;20020;-77
2021/12/23 11:51:28;;;;;;;0.38;0.38;;;;;;;-143.85;100.00;70650.75;5090316;28;20016;-80
2021/12/23 11:53:54;;;;;;;1.30;1.30;;;;;;;-143.85;100.00;70650.75;5091914;28;20023;-79
2021/12/23 11:56:21;;;;;;;0.30;0.30;;;;;;;-143.85;100.00;70650.75;5073624;28;20480;-80
2021/12/23 11:58:48;;;;;;;2.60;1.17;;;;;;;-143.85;100.00;70650.75;5073496;28;20031;-80
2021/12/23 12:01:24;;;;;;;0.93;0.93;;;;;;;-143.85;100.00;70650.75;5073758;28;20411;-78
2021/12/23 12:03:54;;;;;;;0.73;0.73;;;;;;;-143.85;100.00;70650.75;5078609;28;20127;-77
2021/12/23 12:06:24;;;;;;;0.43;0.43;;;;;;;-143.85;100.00;70650.75;5094228;28;20020;-78
2021/12/23 12:09:26;;;;;;;0.85;0.85;;;;;;;-143.85;100.00;70650.75;5091091;28;20044;-79
2021/12/23 12:12:11;;;;;;;0.60;0.60;;;;;;;-143.85;100.00;70650.75;5073905;28;20064;-80
2021/12/23 12:14:40;;;;;;;0.52;0.52;;;;;;;-143.85;100.00;70650.75;5074072;28;20466;-80
2021/12/23 12:17:23;;;;;;;;;;;;;;;-143.85;100.00;70650.75;5057859;28;20029;-81
2021/12/23 12:20:08;;;;;;;0.38;0.38;;;;;;;-143.85;100.00;70650.75;5057230;28;20380;-83
2021/12/23 12:22:56;;;;;;;0.30;0.30;;;;;;;-143.85;100.00;70650.75;5058030;28;20024;-82
2021/12/23 12:25:24;;;;;;;0.20;0.20;;;;;;;-143.85;100.00;70650.75;5057149;28;20028;-81
2021/12/23 12:27:50;;;;;;;0.43;0.43;;;;;;;-143.85;100.00;70650.75;5057530;28;20032;-78
2021/12/23 12:30:18;;;;;;;0.40;0.40;;;;;;;-143.85;100.00;70650.75;5095322;28;20392;-78
2021/12/23 12:32:44;;;;;;;0.20;0.20;;;;;;;-143.85;100.00;70650.75;5097424;28;20031;-79
2021/12/23 12:35:20;;;;;;;0.50;0.47;;;;;;;-143.85;100.00;70650.75;5097005;28;20456;-77
2021/12/23 12:37:50;;;;;;;1.23;1.15;;;;;;;-143.85;100.00;70650.75;5096503;28;20072;-77
2021/12/23 12:40:17;;;;;;;0.30;0.30;;;;;;;-143.85;100.00;70650.75;5089780;28;20032;-80
2021/12/23 12:42:46;;;;;;;0.65;0.65;;;;;;;-143.85;100.00;70650.75;5088902;28;20102;-79